createdAt,value
2022-11-04T13:09:38.000Z,55.554199
2022-11-04T13:09:58.000Z,55.584717
2022-11-04T13:10:19.000Z,56.311035
2022-11-04T13:10:39.000Z,56.842041
2022-11-04T13:10:59.000Z,58.477783
2022-11-04T13:11:19.000Z,58.508301
2022-11-04T13:11:40.000Z,58.337402
2022-11-04T13:12:00.000Z,58.764648
2022-11-04T13:12:20.000Z,60.101318
2022-11-04T13:12:40.000Z,60.839844
2022-11-04T13:13:01.000Z,60.937500
2022-11-04T13:13:21.000Z,61.572266
2022-11-04T13:13:42.000Z,62.915039
2022-11-04T13:14:02.000Z,63.757324
2022-11-04T13:14:23.000Z,64.056396
2022-11-04T13:14:43.000Z,63.684082
2022-11-04T13:15:03.000Z,63.781738
2022-11-04T13:15:23.000Z,64.019775
2022-11-04T13:15:44.000Z,64.221191
2022-11-04T13:16:04.000Z,64.453125
2022-11-04T13:16:24.000Z,64.886475
2022-11-04T13:16:44.000Z,65.594482
2022-11-04T13:17:05.000Z,66.540527
2022-11-04T13:17:25.000Z,67.248535
2022-11-04T13:17:45.000Z,67.553711
2022-11-04T13:18:05.000Z,67.382812
2022-11-04T13:18:26.000Z,67.175293
2022-11-04T13:18:46.000Z,67.614746
2022-11-04T13:19:06.000Z,68.017578
2022-11-04T13:19:27.000Z,68.353271
2022-11-04T13:19:47.000Z,68.457031
2022-11-04T13:20:07.000Z,68.658447
2022-11-04T13:20:27.000Z,68.658447
2022-11-04T13:20:48.000Z,69.097900
2022-11-04T13:21:08.000Z,69.000244
2022-11-04T13:21:28.000Z,68.896484
2022-11-04T13:21:48.000Z,69.335938
2022-11-04T13:22:09.000Z,69.738770
2022-11-04T13:22:29.000Z,70.043945
2022-11-04T13:22:49.000Z,70.147705
2022-11-04T13:23:09.000Z,70.281982
2022-11-04T13:23:30.000Z,70.483398
2022-11-04T13:23:50.000Z,70.178223
2022-11-04T13:24:10.000Z,70.281982
2022-11-04T13:24:30.000Z,70.379639
2022-11-04T14:05:38.000Z,65.100098
2022-11-04T14:06:04.000Z,65.399170
2022-11-04T14:06:40.000Z,65.838623
2022-11-04T14:07:10.000Z,66.345215
2022-11-04T14:07:36.000Z,66.577148
2022-11-04T14:07:56.000Z,66.912842
2022-11-04T14:08:16.000Z,67.620850
2022-11-04T14:08:42.000Z,68.261719
2022-11-04T14:09:06.000Z,69.067383
2022-11-04T14:09:26.000Z,69.000244
2022-11-04T14:09:52.000Z,69.842529
2022-11-04T14:10:12.000Z,70.452881
2022-11-04T14:11:23.000Z,71.734619
2022-11-04T14:11:44.000Z,71.838379
2022-11-04T14:12:04.000Z,73.089600
2022-11-04T14:12:24.000Z,73.291016
2022-11-04T14:12:44.000Z,73.699951
2022-11-04T14:13:05.000Z,74.310303
2022-11-04T14:13:25.000Z,75.427246
2022-11-04T14:13:45.000Z,75.158691
2022-11-04T14:14:05.000Z,75.158691
2022-11-04T14:14:26.000Z,75.762939
2022-11-04T14:14:46.000Z,76.409912
2022-11-04T14:15:06.000Z,76.818848
2022-11-04T14:15:26.000Z,77.124023
2022-11-04T14:15:47.000Z,77.160645
2022-11-04T14:16:07.000Z,77.667236
2022-11-04T14:16:27.000Z,78.173828
2022-11-04T14:16:48.000Z,77.972412
2022-11-04T14:17:10.000Z,78.009033
2022-11-04T14:17:31.000Z,78.112793
2022-11-04T14:17:51.000Z,78.314209
2022-11-04T14:18:11.000Z,78.314209
2022-11-04T14:18:31.000Z,79.431152
2022-11-04T14:18:52.000Z,80.450439
2022-11-04T14:19:12.000Z,80.993652
2022-11-04T14:19:32.000Z,81.402588
2022-11-04T14:19:52.000Z,81.707764
2022-11-04T14:20:13.000Z,81.707764
2022-11-04T14:20:33.000Z,82.012939
2022-11-04T14:20:53.000Z,82.824707
2022-11-04T14:21:14.000Z,82.824707
2022-11-04T14:21:34.000Z,82.623291
2022-11-04T14:21:54.000Z,82.458496
2022-11-04T14:22:15.000Z,82.659912
2022-11-04T14:22:35.000Z,82.659912
2022-11-04T14:22:55.000Z,82.659912
2022-11-04T14:23:15.000Z,82.659912
2022-11-04T14:23:36.000Z,82.763672
2022-11-04T14:23:56.000Z,82.867432
2022-11-04T14:24:29.000Z,83.581543
2022-11-04T14:24:49.000Z,83.679199
2022-11-04T14:27:05.000Z,83.886719
2022-11-04T14:27:29.000Z,83.782959
